Time;durP1;ratioP1;P1;durP2;ratioP2;P2;SDS_P1;SDS_P2;PMS_P1;PMS_P2;Temp;Humidity;BMP_temperature;BMP_pressure;BME280_temperature;BME280_humidity;BME280_pressure;Samples;Min_cycle;Max_cycle;Signal;HPM_P1;HPM_P2
2022/01/06 00:01:10;;;;;;;2.35;1.67;;;;;;;7.61;78.21;96441.05;1733711;82;21005;-74
2022/01/06 00:03:37;;;;;;;2.33;1.65;;;;;;;7.56;78.27;96436.44;1737452;82;21399;-74
2022/01/06 00:06:07;;;;;;;2.72;1.90;;;;;;;7.43;79.82;96435.63;1716512;82;21450;-73
2022/01/06 00:08:37;;;;;;;2.55;1.80;;;;;;;7.37;78.61;96435.89;1737842;82;21032;-73
2022/01/06 00:11:08;;;;;;;1.98;1.40;;;;;;;7.31;79.81;96437.48;1737744;82;21412;-74
2022/01/06 00:16:26;;;;;;;2.90;1.77;;;;;;;7.12;79.37;96445.69;1710738;84;21422;-73
2022/01/06 00:24:11;;;;;;;1.30;1.17;;;;;;;7.04;80.90;96467.97;1711538;84;20153;-73
2022/01/06 00:26:38;;;;;;;1.72;1.42;;;;;;;6.96;80.67;96479.68;1736213;82;21029;-73
2022/01/06 00:29:04;;;;;;;3.67;1.70;;;;;;;6.89;80.34;96486.57;1740289;82;20953;-73
2022/01/06 00:31:33;;;;;;;2.62;1.85;;;;;;;6.81;81.67;96486.39;1739802;82;21466;-73
2022/01/06 00:34:00;;;;;;;2.85;1.90;;;;;;;6.80;80.69;96486.00;1737978;81;20958;-73
2022/01/06 00:36:27;;;;;;;4.72;1.50;;;;;;;6.80;80.03;96485.13;1737840;82;21029;-73
2022/01/06 00:38:54;;;;;;;2.50;1.82;;;;;;;6.78;80.14;96490.48;1740844;82;21415;-73
2022/01/06 00:41:21;;;;;;;2.95;1.80;;;;;;;6.76;80.35;96478.30;1740770;82;21089;-73
2022/01/06 00:43:47;;;;;;;2.10;1.70;;;;;;;6.72;82.07;96491.56;1740848;82;21052;-73
2022/01/06 00:46:16;;;;;;;2.02;1.67;;;;;;;6.65;80.75;96486.59;1740301;82;21470;-73
2022/01/06 00:48:43;;;;;;;1.67;1.47;;;;;;;6.62;81.24;96486.70;1740521;82;20937;-73
2022/01/06 00:51:09;;;;;;;2.45;1.80;;;;;;;6.60;80.93;96494.65;1736350;82;21006;-73
2022/01/06 00:53:36;;;;;;;3.00;1.70;;;;;;;6.60;81.09;96494.20;1711017;83;20985;-73
2022/01/06 00:56:02;;;;;;;2.00;1.70;;;;;;;6.59;81.30;96499.08;1711214;84;21036;-73
2022/01/06 00:58:29;;;;;;;3.37;1.92;;;;;;;6.58;81.90;96501.77;1711233;84;21047;-73
2022/01/06 01:00:55;;;;;;;2.62;1.80;;;;;;;6.57;84.09;96497.42;1714152;82;21131;-73
2022/01/06 01:03:23;;;;;;;2.72;1.80;;;;;;;6.55;81.72;96507.12;1737417;82;20994;-73
2022/01/06 01:05:52;;;;;;;2.90;2.00;;;;;;;6.52;82.03;96501.52;1730313;82;20999;-73
2022/01/06 01:08:19;;;;;;;3.55;1.77;;;;;;;6.50;82.15;96490.20;1742634;81;21093;-73
2022/01/06 01:10:47;;;;;;;2.35;1.85;;;;;;;6.50;84.10;96488.89;1732788;82;21001;-73
2022/01/06 01:13:15;;;;;;;2.70;1.90;;;;;;;6.49;83.13;96490.26;1735762;82;20977;-73
2022/01/06 01:15:52;;;;;;;2.70;2.00;;;;;;;6.47;83.66;96495.58;1748934;82;21004;-73
2022/01/06 01:18:19;;;;;;;2.55;1.98;;;;;;;6.45;83.82;96480.31;1749120;82;20998;-73
2022/01/06 01:20:47;;;;;;;2.55;2.00;;;;;;;6.47;83.82;96492.50;1746134;82;22057;-73
2022/01/06 01:23:15;;;;;;;2.47;1.82;;;;;;;6.47;83.66;96484.60;1749109;82;21387;-73
2022/01/06 01:25:42;;;;;;;3.17;1.90;;;;;;;6.52;84.05;96473.05;1749034;82;21415;-73
2022/01/06 01:28:10;;;;;;;2.67;1.77;;;;;;;6.52;84.93;96476.52;1748834;82;21028;-73
2022/01/06 01:30:54;;;;;;;2.33;1.50;;;;;;;6.52;84.19;96475.68;1749011;82;20945;-73
2022/01/06 01:33:15;;;;;;;3.58;2.05;;;;;;;6.56;83.86;96491.28;1727735;81;21025;-73
2022/01/06 01:35:37;;;;;;;3.05;2.00;;;;;;;6.60;84.08;96487.63;1682370;85;21018;-73
2022/01/06 01:38:03;;;;;;;2.35;1.65;;;;;;;6.63;84.17;96484.02;1683510;85;21010;-73
2022/01/06 01:40:30;;;;;;;3.37;1.80;;;;;;;6.67;83.74;96480.80;1747347;82;21419;-73
2022/01/06 01:42:56;;;;;;;2.10;1.75;;;;;;;6.73;83.74;96477.95;1748956;82;20989;-73
2022/01/06 01:45:28;;;;;;;2.70;1.85;;;;;;;6.76;83.75;96475.19;1749251;82;20989;-73
2022/01/06 01:47:51;;;;;;;2.60;1.72;;;;;;;6.80;83.80;96472.83;1748280;82;20989;-74
2022/01/06 01:50:18;;;;;;;2.67;1.70;;;;;;;6.84;83.60;96463.03;1741995;82;20996;-73
2022/01/06 01:52:50;;;;;;;2.58;1.98;;;;;;;6.89;83.94;96466.81;1718975;83;21741;-73
2022/01/06 01:55:24;;;;;;;2.55;1.80;;;;;;;6.90;83.76;96472.03;1719170;83;21009;-73
2022/01/06 01:57:52;;;;;;;2.33;1.90;;;;;;;6.87;83.45;96452.39;1719419;83;21075;-73
2022/01/06 02:00:23;;;;;;;3.70;2.25;;;;;;;6.82;83.68;96459.13;1719282;83;21013;-73
2022/01/06 02:02:49;;;;;;;2.30;2.10;;;;;;;6.83;83.57;96456.92;1721352;82;20988;-74
2022/01/06 02:05:25;;;;;;;2.37;1.95;;;;;;;6.76;82.96;96443.59;1716481;83;21070;-73
2022/01/06 02:07:48;;;;;;;3.08;2.30;;;;;;;6.70;83.08;96442.07;1710933;84;21089;-73
2022/01/06 02:10:14;;;;;;;3.87;2.65;;;;;;;6.62;83.00;96453.34;1722134;82;20999;-73
2022/01/06 02:12:42;;;;;;;2.70;2.27;;;;;;;6.56;83.42;96449.65;1706206;82;21044;-74
2022/01/06 02:15:11;;;;;;;2.92;2.40;;;;;;;6.53;84.41;96460.28;1696481;83;21007;-73
2022/01/06 02:17:38;;;;;;;3.35;2.52;;;;;;;6.43;84.77;96455.36;1696354;82;21021;-73
2022/01/06 02:20:11;;;;;;;2.85;2.33;;;;;;;6.35;85.34;96450.84;1696616;83;21010;-73
2022/01/06 02:22:38;;;;;;;3.20;2.20;;;;;;;6.31;83.98;96455.36;1710209;82;20958;-73
2022/01/06 02:25:12;;;;;;;2.95;2.20;;;;;;;6.26;84.48;96468.28;1711223;84;21076;-74
2022/01/06 02:27:39;;;;;;;3.00;2.50;;;;;;;6.23;84.32;96467.09;1709815;84;20985;-74
2022/01/06 02:30:08;;;;;;;3.95;2.90;;;;;;;6.22;84.14;96464.91;1711077;84;21098;-74
2022/01/06 02:32:34;;;;;;;3.47;2.55;;;;;;;6.21;83.94;96468.46;1715621;82;21021;-74
2022/01/06 02:35:09;;;;;;;3.45;2.77;;;;;;;6.19;83.93;96460.62;1739102;81;21419;-74
2022/01/06 02:37:35;;;;;;;4.20;2.62;;;;;;;6.17;83.89;96457.64;1739098;82;21045;-74
2022/01/06 02:40:08;;;;;;;3.87;2.65;;;;;;;6.11;84.13;96467.95;1675844;85;21054;-74
2022/01/06 02:42:35;;;;;;;3.77;2.70;;;;;;;6.07;84.00;96461.92;1677093;85;21044;-74
2022/01/06 02:45:02;;;;;;;3.83;2.60;;;;;;;6.05;83.87;96468.16;1740868;81;20974;-74
2022/01/06 02:47:28;;;;;;;3.33;2.27;;;;;;;6.03;84.35;96469.52;1740982;82;20994;-74
2022/01/06 02:49:55;;;;;;;3.67;2.70;;;;;;;6.02;84.08;96460.36;1741060;82;20985;-74
2022/01/06 02:52:21;;;;;;;5.55;2.67;;;;;;;6.00;84.16;96460.41;1719432;82;21040;-74
2022/01/06 02:54:48;;;;;;;4.12;2.60;;;;;;;6.01;84.28;96457.31;1711695;84;21387;-74
2022/01/06 02:57:14;;;;;;;4.12;3.00;;;;;;;6.00;84.46;96455.59;1711648;84;20974;-74
2022/01/06 02:59:41;;;;;;;4.55;3.12;;;;;;;5.98;85.50;96454.81;1711327;84;21000;-74
2022/01/06 03:02:09;;;;;;;5.00;3.15;;;;;;;5.96;84.52;96462.75;1711565;84;21434;-74
2022/01/06 03:04:35;;;;;;;4.10;2.92;;;;;;;5.95;84.28;96463.67;1736974;82;21486;-74
2022/01/06 03:07:03;;;;;;;4.25;3.65;;;;;;;5.94;84.63;96468.05;1737612;81;21001;-74
2022/01/06 03:09:38;;;;;;;4.80;3.33;;;;;;;5.89;86.23;96482.27;1724988;83;21381;-74
2022/01/06 03:11:58;;;;;;;5.78;3.50;;;;;;;5.86;87.30;96484.55;1723567;83;21000;-74
2022/01/06 03:14:24;;;;;;;4.40;3.10;;;;;;;5.85;85.40;96479.37;1724984;82;21045;-73
2022/01/06 03:16:51;;;;;;;3.92;3.12;;;;;;;5.86;85.12;96476.66;1725031;83;21290;-74
2022/01/06 03:19:17;;;;;;;5.60;3.08;;;;;;;5.87;85.00;96473.14;1724963;83;21013;-74
2022/01/06 03:21:43;;;;;;;4.75;2.62;;;;;;;5.88;84.84;96473.98;1725139;83;21457;-74
2022/01/06 03:24:10;;;;;;;3.85;2.90;;;;;;;5.86;85.45;96476.66;1725962;82;21024;-74
2022/01/06 03:26:36;;;;;;;4.78;3.42;;;;;;;5.87;85.15;96481.03;1734378;82;20961;-74
2022/01/06 03:29:03;;;;;;;3.87;3.10;;;;;;;5.92;84.87;96488.30;1724992;83;21013;-74
2022/01/06 03:31:29;;;;;;;3.80;2.80;;;;;;;5.94;85.41;96506.19;1725131;83;21013;-74
2022/01/06 03:33:56;;;;;;;3.65;3.02;;;;;;;5.96;85.94;96515.34;1733334;80;20979;-74
2022/01/06 03:36:22;;;;;;;4.95;3.30;;;;;;;5.98;86.48;96516.13;1724990;83;20971;-74
2022/01/06 03:38:49;;;;;;;5.42;3.52;;;;;;;5.97;86.73;96524.94;1725608;82;21012;-74
2022/01/06 03:41:15;;;;;;;9.13;3.52;;;;;;;6.03;86.27;96525.22;1725026;83;21099;-74
2022/01/06 03:43:42;;;;;;;5.22;3.85;;;;;;;6.03;86.67;96524.75;1724980;83;21012;-74
2022/01/06 03:46:08;;;;;;;4.55;3.20;;;;;;;6.07;86.46;96533.41;1725082;83;21045;-74
2022/01/06 03:48:35;;;;;;;4.08;3.30;;;;;;;6.08;87.32;96529.86;1747774;82;21043;-74
2022/01/06 03:51:01;;;;;;;3.95;2.80;;;;;;;6.11;86.86;96530.21;1754953;81;21037;-74
2022/01/06 03:53:27;;;;;;;4.03;3.05;;;;;;;6.15;86.45;96539.24;1727494;81;21016;-74
2022/01/06 03:55:54;;;;;;;4.60;3.02;;;;;;;6.22;86.37;96542.52;1725006;83;21020;-74
2022/01/06 03:58:20;;;;;;;3.72;2.75;;;;;;;6.25;86.42;96548.13;1744731;82;21040;-74
2022/01/06 04:00:47;;;;;;;4.00;2.98;;;;;;;6.29;86.13;96560.27;1754853;82;21029;-74
2022/01/06 04:03:14;;;;;;;3.72;2.80;;;;;;;6.34;86.19;96556.56;1754856;82;20957;-74
2022/01/06 04:05:40;;;;;;;6.08;3.60;;;;;;;6.39;86.16;96563.44;1754683;82;21328;-74
2022/01/06 04:08:07;;;;;;;4.20;3.20;;;;;;;6.41;86.16;96553.27;1754835;81;20992;-74
2022/01/06 04:10:34;;;;;;;5.05;3.50;;;;;;;6.44;86.08;96554.92;1733374;82;20997;-74
2022/01/06 04:13:00;;;;;;;4.03;3.25;;;;;;;6.45;85.94;96546.11;1724892;83;21426;-74
2022/01/06 04:15:27;;;;;;;5.15;3.70;;;;;;;6.43;85.91;96558.00;1724924;83;21008;-74
2022/01/06 04:17:53;;;;;;;7.40;4.00;;;;;;;6.43;86.07;96556.69;1733664;82;21406;-74
2022/01/06 04:20:20;;;;;;;6.03;3.77;;;;;;;6.46;85.77;96550.45;1754840;82;21025;-75
2022/01/06 04:22:46;;;;;;;5.72;3.60;;;;;;;6.45;85.62;96552.20;1754898;82;20988;-74
2022/01/06 04:25:13;;;;;;;6.33;4.25;;;;;;;6.45;85.26;96559.27;1754825;82;20993;-73
2022/01/06 04:27:40;;;;;;;9.15;4.70;;;;;;;6.40;84.96;96560.73;1740821;82;21020;-74
2022/01/06 04:30:09;;;;;;;6.87;4.17;;;;;;;6.38;85.06;96554.67;1742498;82;20975;-74
2022/01/06 04:32:36;;;;;;;6.10;4.08;;;;;;;6.35;84.87;96553.45;1742583;82;21003;-74
2022/01/06 04:35:06;;;;;;;5.58;4.20;;;;;;;6.33;84.78;96544.77;1749598;80;21024;-74
2022/01/06 04:37:33;;;;;;;5.85;4.17;;;;;;;6.27;84.63;96539.27;1686313;85;21122;-74
2022/01/06 04:39:59;;;;;;;6.83;4.12;;;;;;;6.22;84.92;96546.94;1748474;82;22273;-74
2022/01/06 04:42:27;;;;;;;5.80;4.33;;;;;;;6.16;84.79;96540.98;1724981;83;20992;-74
2022/01/06 04:44:53;;;;;;;6.35;4.20;;;;;;;6.15;84.90;96533.14;1724740;83;21055;-74
2022/01/06 04:47:19;;;;;;;7.72;4.92;;;;;;;6.12;84.85;96530.61;1724768;83;21093;-74
2022/01/06 04:49:46;;;;;;;8.35;5.25;;;;;;;6.05;84.90;96536.54;1724973;83;20976;-74
2022/01/06 04:52:12;;;;;;;9.23;4.87;;;;;;;6.00;84.94;96531.86;1731925;82;21016;-74
2022/01/06 04:54:40;;;;;;;6.58;4.90;;;;;;;5.97;85.54;96531.98;1754851;82;20957;-74
2022/01/06 04:57:07;;;;;;;5.62;4.28;;;;;;;5.92;85.15;96531.69;1748986;82;21030;-73
2022/01/06 04:59:33;;;;;;;8.68;5.62;;;;;;;5.90;85.17;96530.03;1742404;82;21019;-72
2022/01/06 05:02:00;;;;;;;7.35;5.55;;;;;;;5.86;85.24;96526.62;1742698;82;21066;-75
2022/01/06 05:04:26;;;;;;;7.30;5.62;;;;;;;5.87;85.32;96539.32;1746940;82;21395;-74
2022/01/06 05:06:53;;;;;;;8.70;5.40;;;;;;;5.88;85.53;96531.83;1730891;81;21013;-74
2022/01/06 05:09:19;;;;;;;7.30;5.03;;;;;;;5.86;85.36;96530.56;1711340;84;21049;-74
2022/01/06 05:11:46;;;;;;;8.68;5.37;;;;;;;5.85;85.42;96526.70;1711281;84;21434;-74
2022/01/06 05:14:12;;;;;;;9.00;5.35;;;;;;;5.85;86.33;96538.53;1711434;84;21073;-74
2022/01/06 05:16:39;;;;;;;7.33;5.22;;;;;;;5.83;86.09;96535.95;1726191;82;21017;-74
2022/01/06 05:19:05;;;;;;;8.08;5.00;;;;;;;5.83;85.69;96537.26;1740933;82;21005;-74
2022/01/06 05:21:33;;;;;;;7.65;5.15;;;;;;;5.83;85.67;96533.31;1740931;82;21074;-74
2022/01/06 05:24:01;;;;;;;7.12;5.30;;;;;;;5.80;86.46;96530.34;1738392;82;21017;-74
2022/01/06 05:26:27;;;;;;;8.25;5.83;;;;;;;5.79;85.92;96529.07;1711248;84;20981;-74
2022/01/06 05:28:54;;;;;;;8.50;5.12;;;;;;;5.77;86.03;96535.69;1719219;82;21414;-73
2022/01/06 05:31:20;;;;;;;7.60;5.28;;;;;;;5.77;85.84;96534.84;1726115;83;21191;-73
2022/01/06 05:33:47;;;;;;;6.00;4.78;;;;;;;5.76;85.70;96537.92;1726228;81;20961;-73
2022/01/06 05:36:13;;;;;;;7.58;6.00;;;;;;;5.75;86.06;96544.53;1740390;82;21030;-73
2022/01/06 05:38:39;;;;;;;8.40;5.78;;;;;;;5.77;85.92;96547.52;1740905;81;20970;-73
2022/01/06 05:41:06;;;;;;;7.15;5.42;;;;;;;5.77;85.43;96537.00;1740668;82;21420;-73
2022/01/06 05:43:32;;;;;;;7.33;4.92;;;;;;;5.78;85.21;96540.50;1740944;81;20998;-73
2022/01/06 05:46:00;;;;;;;6.92;5.25;;;;;;;5.77;85.07;96527.80;1740833;81;20981;-73
2022/01/06 05:48:27;;;;;;;7.55;5.55;;;;;;;5.77;84.92;96535.69;1740073;82;20950;-73
2022/01/06 05:50:53;;;;;;;7.28;5.08;;;;;;;5.75;84.78;96542.78;1740800;81;21458;-74
2022/01/06 05:53:20;;;;;;;7.00;5.10;;;;;;;5.74;84.70;96537.57;1716969;82;20942;-73
2022/01/06 05:55:47;;;;;;;6.70;5.08;;;;;;;5.73;84.33;96548.53;1715599;82;21013;-73
2022/01/06 05:58:14;;;;;;;7.65;5.60;;;;;;;5.71;84.36;96549.48;1740213;82;20954;-73
2022/01/06 06:00:42;;;;;;;7.58;5.67;;;;;;;5.64;85.08;96561.97;1740468;82;21005;-73
2022/01/06 06:03:09;;;;;;;7.60;5.08;;;;;;;5.67;84.94;96560.56;1740777;81;20981;-73
2022/01/06 06:05:37;;;;;;;7.67;5.35;;;;;;;5.70;85.60;96568.80;1739906;82;21084;-73
2022/01/06 06:08:04;;;;;;;7.08;4.80;;;;;;;5.72;85.72;96569.16;1746796;81;21013;-73
2022/01/06 06:10:31;;;;;;;6.90;4.92;;;;;;;5.79;85.69;96566.75;1719660;82;21438;-74
2022/01/06 06:12:57;;;;;;;7.30;5.30;;;;;;;5.84;85.82;96573.59;1748988;82;20988;-74
2022/01/06 06:15:24;;;;;;;6.83;5.37;;;;;;;5.90;85.53;96566.84;1719562;82;21487;-73
2022/01/06 06:17:50;;;;;;;7.85;4.97;;;;;;;5.94;85.50;96560.09;1744525;82;21000;-73
2022/01/06 06:20:17;;;;;;;8.68;6.25;;;;;;;5.97;85.22;96574.91;1749293;82;20994;-73
2022/01/06 06:22:44;;;;;;;9.43;6.33;;;;;;;5.95;85.55;96586.78;1749000;82;20989;-73
2022/01/06 06:25:10;;;;;;;11.90;7.35;;;;;;;5.97;85.58;96595.95;1745800;82;20997;-73
2022/01/06 06:27:37;;;;;;;14.38;8.73;;;;;;;5.93;85.33;96609.66;1744614;82;20993;-73
2022/01/06 06:30:06;;;;;;;11.95;7.37;;;;;;;5.93;85.85;96605.71;1749166;82;21040;-74
2022/01/06 06:32:33;;;;;;;13.48;8.50;;;;;;;5.98;85.84;96597.66;1749251;82;21459;-73
2022/01/06 06:35:00;;;;;;;12.03;7.60;;;;;;;5.94;85.94;96599.53;1730056;81;21005;-73
2022/01/06 06:37:27;;;;;;;12.63;7.83;;;;;;;5.89;86.10;96604.53;1738614;82;20930;-73
2022/01/06 06:39:54;;;;;;;12.40;7.87;;;;;;;5.84;88.31;96610.41;1744068;81;20966;-73
2022/01/06 06:42:20;;;;;;;10.40;6.90;;;;;;;5.81;86.98;96619.25;1748449;82;21398;-73
2022/01/06 06:44:47;;;;;;;10.48;7.10;;;;;;;5.76;87.28;96616.79;1748994;82;20997;-73
2022/01/06 06:47:13;;;;;;;9.83;6.90;;;;;;;5.72;87.49;96637.51;1742006;82;20958;-73
2022/01/06 06:49:40;;;;;;;9.25;5.70;;;;;;;5.64;88.75;96637.75;1719283;83;21024;-73
2022/01/06 06:52:06;;;;;;;8.90;6.22;;;;;;;5.60;89.36;96641.38;1719379;83;21466;-73
2022/01/06 06:54:33;;;;;;;10.08;5.85;;;;;;;5.53;87.39;96659.11;1719490;83;20985;-73
2022/01/06 06:57:00;;;;;;;10.90;5.83;;;;;;;5.50;87.31;96656.59;1719592;83;21008;-73
2022/01/06 06:59:26;;;;;;;9.10;5.72;;;;;;;5.47;87.37;96661.06;1729146;82;21399;-73
2022/01/06 07:01:53;;;;;;;7.62;5.37;;;;;;;5.43;87.66;96652.89;1744611;81;20977;-73
2022/01/06 07:04:19;;;;;;;8.75;6.08;;;;;;;5.37;87.24;96653.48;1749029;82;20994;-72
2022/01/06 07:06:45;;;;;;;10.38;6.35;;;;;;;5.37;87.23;96657.87;1749628;81;20993;-73
2022/01/06 07:09:12;;;;;;;7.95;5.70;;;;;;;5.32;89.21;96654.52;1754902;81;21493;-73
2022/01/06 07:11:38;;;;;;;9.78;6.72;;;;;;;5.28;88.02;96654.60;1750839;82;20985;-74
2022/01/06 07:14:05;;;;;;;11.40;6.60;;;;;;;5.27;87.77;96652.89;1725030;83;22253;-73
2022/01/06 07:16:31;;;;;;;11.10;6.75;;;;;;;5.25;89.66;96660.41;1724842;83;21009;-73
2022/01/06 07:18:57;;;;;;;9.78;6.62;;;;;;;5.21;88.47;96660.09;1724861;83;20973;-73
2022/01/06 07:21:24;;;;;;;9.98;6.53;;;;;;;5.14;88.48;96673.84;1724960;82;20984;-73
2022/01/06 07:23:52;;;;;;;11.22;7.47;;;;;;;5.02;90.03;96677.25;1754160;82;21410;-73
2022/01/06 07:26:19;;;;;;;10.13;7.60;;;;;;;5.02;89.96;96682.50;1754730;82;20981;-73
2022/01/06 07:28:46;;;;;;;10.15;6.90;;;;;;;5.00;90.49;96686.95;1754905;82;20965;-73
2022/01/06 07:31:12;;;;;;;10.75;6.62;;;;;;;4.90;94.49;96693.33;1752267;82;21028;-73
2022/01/06 07:33:39;;;;;;;8.73;6.17;;;;;;;4.91;90.65;96692.89;1724886;83;21056;-73
2022/01/06 07:36:05;;;;;;;11.12;7.17;;;;;;;4.89;91.01;96690.30;1724936;83;21052;-73
2022/01/06 07:38:32;;;;;;;35.35;19.00;;;;;;;4.87;91.66;96690.81;1724941;83;21020;-73
2022/01/06 07:40:58;;;;;;;9.53;5.53;;;;;;;4.89;90.41;96696.43;1729055;82;20965;-73
2022/01/06 07:43:25;;;;;;;7.92;6.03;;;;;;;4.86;91.20;96692.56;1736067;82;21371;-74
2022/01/06 07:45:51;;;;;;;8.53;5.75;;;;;;;4.86;92.24;96686.00;1741860;82;21383;-74
2022/01/06 07:48:25;;;;;;;8.63;6.00;;;;;;;4.89;90.27;96695.55;1738046;82;20977;-74
2022/01/06 07:50:47;;;;;;;9.78;5.90;;;;;;;4.88;90.37;96714.84;1723853;83;21419;-74
2022/01/06 07:53:13;;;;;;;11.48;5.90;;;;;;;4.86;92.46;96708.31;1735154;82;20949;-74
2022/01/06 07:55:42;;;;;;;9.10;6.10;;;;;;;4.90;90.38;96716.96;1754993;82;21028;-74
2022/01/06 07:58:09;;;;;;;5.60;4.17;;;;;;;4.92;90.27;96719.55;1733689;82;21009;-74
2022/01/06 08:00:36;;;;;;;6.40;4.42;;;;;;;4.78;89.85;96722.56;1724837;83;21481;-74
2022/01/06 08:03:02;;;;;;;5.70;4.00;;;;;;;4.83;89.89;96732.05;1738424;82;21076;-74
2022/01/06 08:05:29;;;;;;;5.08;3.77;;;;;;;4.74;89.55;96745.41;1736452;82;21438;-73
2022/01/06 08:07:56;;;;;;;4.20;2.92;;;;;;;4.67;89.60;96735.52;1739498;81;21007;-72
2022/01/06 08:10:24;;;;;;;3.67;2.80;;;;;;;4.66;90.02;96756.11;1736941;82;20973;-72
2022/01/06 08:12:50;;;;;;;3.55;2.50;;;;;;;4.61;89.30;96764.09;1724577;82;21285;-72
2022/01/06 08:15:17;;;;;;;3.30;2.00;;;;;;;4.59;88.92;96772.46;1748682;82;21537;-77
2022/01/06 08:17:44;;;;;;;2.35;1.92;;;;;;;4.51;88.61;96774.84;1753972;82;21035;-78
2022/01/06 08:20:11;;;;;;;2.45;1.77;;;;;;;4.51;88.94;96775.72;1754094;82;21052;-76
2022/01/06 08:22:38;;;;;;;2.17;1.50;;;;;;;4.46;88.82;96774.54;1747284;82;20965;-77
2022/01/06 08:25:07;;;;;;;2.75;1.40;;;;;;;4.46;89.00;96781.53;1724909;82;21044;-78
2022/01/06 08:27:34;;;;;;;3.50;1.70;;;;;;;4.36;88.50;96781.75;1723828;83;20988;-78
2022/01/06 08:30:01;;;;;;;2.00;1.47;;;;;;;4.38;88.86;96793.97;1736924;82;20981;-78
2022/01/06 08:32:27;;;;;;;7.90;3.25;;;;;;;4.38;88.83;96801.84;1730662;82;21493;-78
2022/01/06 08:34:53;;;;;;;2.60;1.40;;;;;;;4.34;88.68;96802.36;1725098;82;21028;-78
2022/01/06 08:37:20;;;;;;;1.85;1.32;;;;;;;4.28;88.53;96810.39;1723886;83;21040;-79
2022/01/06 08:39:46;;;;;;;2.08;1.30;;;;;;;4.25;89.11;96813.08;1744809;82;21409;-77
2022/01/06 08:42:13;;;;;;;1.95;1.35;;;;;;;4.25;89.69;96814.38;1754514;82;20957;-78
2022/01/06 08:44:41;;;;;;;2.27;1.47;;;;;;;4.26;88.79;96822.66;1752440;81;21015;-78
2022/01/06 08:47:10;;;;;;;1.85;1.20;;;;;;;4.26;89.02;96827.47;1754135;82;20981;-78
2022/01/06 08:49:37;;;;;;;1.22;0.80;;;;;;;4.25;88.47;96833.62;1754057;81;21001;-77
2022/01/06 08:52:05;;;;;;;2.37;1.40;;;;;;;4.20;88.47;96843.35;1754599;82;20996;-77
2022/01/06 08:54:31;;;;;;;2.45;1.22;;;;;;;4.20;88.36;96840.73;1754838;82;21442;-77
2022/01/06 08:56:58;;;;;;;1.35;0.90;;;;;;;4.12;87.77;96832.16;1726415;82;21004;-77
2022/01/06 08:59:24;;;;;;;1.35;0.98;;;;;;;4.07;87.83;96835.75;1725038;83;21024;-77
2022/01/06 09:01:51;;;;;;;2.92;1.22;;;;;;;4.01;87.91;96835.02;1736194;82;21047;-78
2022/01/06 09:04:20;;;;;;;2.98;1.27;;;;;;;4.00;88.60;96842.03;1741108;82;20981;-78
2022/01/06 09:06:51;;;;;;;1.37;1.07;;;;;;;3.99;88.16;96839.01;1738649;82;20993;-77
2022/01/06 09:09:19;;;;;;;1.52;1.10;;;;;;;4.01;88.04;96839.83;1730516;81;21009;-77
2022/01/06 09:11:46;;;;;;;1.52;1.00;;;;;;;3.98;87.98;96826.77;1726718;82;21002;-78
2022/01/06 09:14:13;;;;;;;3.83;1.40;;;;;;;4.02;88.04;96821.88;1728008;82;21001;-77
2022/01/06 09:16:40;;;;;;;3.00;1.57;;;;;;;4.03;89.43;96826.22;1725891;82;21394;-76
2022/01/06 09:19:06;;;;;;;3.62;1.15;;;;;;;4.07;88.68;96825.26;1724342;82;21005;-77
2022/01/06 09:21:33;;;;;;;2.27;1.20;;;;;;;4.12;88.90;96826.92;1721360;82;20997;-77
2022/01/06 09:24:01;;;;;;;1.87;1.10;;;;;;;4.12;88.31;96816.43;1725910;82;20993;-77
2022/01/06 09:26:28;;;;;;;2.22;1.10;;;;;;;4.12;88.22;96821.67;1724895;82;20945;-78
2022/01/06 09:28:55;;;;;;;1.80;1.10;;;;;;;4.14;88.69;96826.42;1726828;82;20969;-78
2022/01/06 09:31:21;;;;;;;1.80;1.20;;;;;;;4.17;88.14;96839.48;1724839;82;20993;-78
2022/01/06 09:33:48;;;;;;;2.52;1.40;;;;;;;4.13;88.23;96832.57;1724554;82;20989;-78
2022/01/06 09:36:14;;;;;;;2.72;1.30;;;;;;;4.11;88.81;96829.13;1727010;82;21009;-78
2022/01/06 09:38:42;;;;;;;2.00;1.27;;;;;;;4.11;88.13;96839.63;1724682;82;21416;-79
2022/01/06 09:41:10;;;;;;;1.80;1.17;;;;;;;4.06;87.87;96838.39;1717860;82;21016;-79
2022/01/06 09:43:36;;;;;;;1.65;0.93;;;;;;;4.01;87.81;96826.72;1725267;82;20961;-78
2022/01/06 09:46:08;;;;;;;3.17;1.00;;;;;;;4.03;87.87;96830.16;1723517;82;20983;-79
2022/01/06 09:48:41;;;;;;;2.83;1.12;;;;;;;4.04;87.62;96818.80;1718985;81;21335;-79
2022/01/06 09:51:11;;;;;;;3.65;1.00;;;;;;;4.04;87.77;96819.23;1721469;82;21024;-79
2022/01/06 09:53:43;;;;;;;3.55;1.60;;;;;;;4.05;87.83;96830.13;1708748;82;21025;-79
2022/01/06 09:56:10;;;;;;;1.92;1.17;;;;;;;4.04;87.83;96835.84;1732839;82;21068;-79
2022/01/06 09:58:37;;;;;;;1.47;1.00;;;;;;;4.09;87.61;96847.08;1724842;82;21014;-78
2022/01/06 10:01:03;;;;;;;2.85;1.27;;;;;;;4.11;87.74;96837.84;1726867;82;20962;-78
2022/01/06 10:03:37;;;;;;;4.00;1.27;;;;;;;4.14;88.36;96847.40;1727437;82;20906;-78
2022/01/06 10:06:23;;;;;;;2.08;1.20;;;;;;;4.19;87.97;96849.03;1726514;82;21033;-78
2022/01/06 10:08:59;;;;;;;1.47;0.93;;;;;;;4.26;88.10;96856.75;1732537;81;21048;-77
2022/01/06 10:11:30;;;;;;;1.30;0.95;;;;;;;4.34;87.71;96858.33;1723221;82;21065;-78
2022/01/06 10:14:06;;;;;;;1.65;1.10;;;;;;;4.43;87.78;96864.23;1724921;82;21375;-77
2022/01/06 10:16:34;;;;;;;2.30;1.10;;;;;;;4.49;88.41;96863.65;1721165;82;21033;-78
2022/01/06 10:19:09;;;;;;;2.62;1.22;;;;;;;4.57;88.04;96870.49;1734627;82;21033;-78
2022/01/06 10:21:40;;;;;;;2.33;1.60;;;;;;;4.64;87.67;96873.38;1734867;81;21013;-78
2022/01/06 10:24:17;;;;;;;1.95;1.15;;;;;;;4.69;87.08;96871.97;1723613;81;20993;-77
2022/01/06 10:27:01;;;;;;;1.27;0.90;;;;;;;4.75;87.89;96877.05;1691215;84;21033;-77
2022/01/06 10:29:36;;;;;;;1.90;1.00;;;;;;;4.85;87.77;96877.67;1735114;82;21002;-77
2022/01/06 10:32:17;;;;;;;1.65;1.10;;;;;;;4.91;88.01;96880.17;1723239;82;21009;-77
2022/01/06 10:34:55;;;;;;;1.07;0.80;;;;;;;4.97;87.83;96873.89;1736310;82;21430;-77
2022/01/06 10:37:35;;;;;;;1.47;0.90;;;;;;;5.01;87.72;96888.23;1727265;82;20934;-77
2022/01/06 10:40:19;;;;;;;4.40;2.37;;;;;;;5.12;88.19;96894.97;1723779;82;20974;-77
2022/01/06 10:42:50;;;;;;;1.73;0.93;;;;;;;5.17;87.12;96894.84;1727459;82;21345;-77
2022/01/06 10:45:25;;;;;;;1.62;0.80;;;;;;;5.17;86.39;96897.47;1726724;82;20989;-77
2022/01/06 10:47:56;;;;;;;1.77;0.93;;;;;;;5.17;86.78;96909.28;1732189;82;21076;-77
2022/01/06 10:50:31;;;;;;;2.20;0.93;;;;;;;5.20;86.77;96901.34;1725707;82;21021;-77
2022/01/06 10:53:02;;;;;;;1.75;1.12;;;;;;;5.27;86.65;96897.64;1725877;82;20954;-77
2022/01/06 10:55:36;;;;;;;1.80;1.05;;;;;;;5.29;86.32;96907.67;1727630;82;21403;-78
2022/01/06 10:58:11;;;;;;;1.22;0.90;;;;;;;5.29;85.37;96903.27;1723529;82;21052;-79
2022/01/06 11:00:42;;;;;;;1.47;1.10;;;;;;;5.30;83.93;96913.33;1725979;82;21046;-78
2022/01/06 11:03:12;;;;;;;1.22;0.90;;;;;;;5.31;83.61;96911.11;1719150;82;20949;-78
2022/01/06 11:05:45;;;;;;;1.35;0.80;;;;;;;5.29;83.91;96915.08;1740780;82;20998;-79
2022/01/06 11:08:17;;;;;;;1.30;0.90;;;;;;;5.34;82.56;96919.36;1740832;81;21029;-79
2022/01/06 11:11:02;;;;;;;1.60;0.80;;;;;;;5.27;81.60;96916.90;1732050;81;21061;-79
2022/01/06 11:13:16;;;;;;;1.00;0.80;;;;;;;5.21;81.73;96914.44;1710363;82;21490;-79
2022/01/06 11:15:42;;;;;;;1.40;1.02;;;;;;;5.23;82.75;96922.28;1711504;83;20989;-79
2022/01/06 11:18:09;;;;;;;1.42;0.78;;;;;;;5.22;82.72;96921.84;1736465;82;20974;-79
2022/01/06 11:20:36;;;;;;;2.20;1.20;;;;;;;5.21;82.48;96914.44;1740037;82;20965;-79
2022/01/06 11:23:03;;;;;;;1.40;1.10;;;;;;;5.22;82.32;96912.66;1740752;82;21025;-79
2022/01/06 11:25:36;;;;;;;1.60;0.90;;;;;;;5.22;82.45;96912.66;1712017;82;21056;-79
2022/01/06 11:28:10;;;;;;;1.72;1.20;;;;;;;5.22;82.66;96908.28;1711368;84;21041;-78
2022/01/06 11:30:47;;;;;;;1.72;1.10;;;;;;;5.25;82.44;96913.90;1711357;84;21446;-78
2022/01/06 11:33:15;;;;;;;1.00;0.90;;;;;;;5.25;82.55;96913.47;1711730;82;21036;-78
2022/01/06 11:35:57;;;;;;;2.22;1.10;;;;;;;5.28;82.64;96917.77;1720743;82;21578;-78
2022/01/06 11:38:27;;;;;;;1.05;0.78;;;;;;;5.32;82.80;96921.17;1726496;82;20993;-79
2022/01/06 11:41:11;;;;;;;1.60;1.05;;;;;;;5.31;81.83;96924.24;1730435;82;21365;-79
2022/01/06 11:43:41;;;;;;;1.62;0.93;;;;;;;5.32;81.95;96926.43;1722452;82;20954;-78
2022/01/06 11:46:09;;;;;;;1.87;1.17;;;;;;;5.33;82.17;96930.34;1732592;82;21064;-78
2022/01/06 11:48:52;;;;;;;1.60;1.00;;;;;;;5.34;82.03;96933.81;1735485;82;20993;-78
2022/01/06 11:51:36;;;;;;;1.25;1.10;;;;;;;5.31;80.76;96937.37;1723349;82;21022;-77
2022/01/06 11:54:17;;;;;;;1.37;1.05;;;;;;;5.23;79.08;96944.61;1738962;82;20981;-78